Meteo Giornale » Osservazioni meteo Stati Uniti (USA) » Jerome
ore: 08:53 - Osservazioni Meteo Jerome
Lat. 42° 43' N Lon. 114° 27' W Alt. 1234 metri s.l.m.
14 °C
Sereno
Temp. 24 Ore
7 °C
23 °C
Est/Nord-Est
16.7 Km/h
Dew point -1 °C
Umidità 35 %
Visibilità 10 Km
Il sole sorge alle ore 07:01
Il sole tramonta alle ore 20:14
| Data e Ora | Cielo e Fenomeni | T °C | DP °C | Um. % | Pres. hPa | Vis. km | Vento km/h | |
|---|---|---|---|---|---|---|---|---|
| Oggi h: 08:53 | Sereno | 14 | -1 | 35 | 1018 | 10 | E/NE 16.7 | |
| Oggi h: 07:53 | Sereno | 10 | -1 | 46 | 1018 | 10 | E/NE 16.7 | |
| Oggi h: 06:53 | Sereno | 7 | 0 | 60 | 1018 | 10 | E/NE 18.5 | |
| Oggi h: 05:53 | Sereno | 9 | -2 | 45 | 1018 | 10 | E/SE 9.3 | |
| Oggi h: 04:53 | Sereno | 9 | -3 | 42 | 1018 | 10 | E/SE 11.1 | |
| Oggi h: 03:53 | Sereno | 11 | -4 | 34 | 1018 | 10 | N 5.5 | |
| Oggi h: 02:53 | Sereno | 13 | -4 | 30 | 1018 | 10 | N 5.5 | |
| Oggi h: 01:53 | Sereno | 11 | -1 | 43 | 1018 | 10 | SE 11.1 | |
| Oggi h: 00:53 | Sereno | 13 | -2 | 35 | 1018 | 10 | S 9.3 | |
| Ieri h: 23:53 | Sereno | 14 | -2 | 32 | 1018 | 10 | SE 11.1 | |
| Ieri h: 22:53 | Sereno | 16 | -4 | 24 | 1018 | 10 | S/SO 9.3 | |
| Ieri h: 21:53 | Sereno | 16 | -2 | 29 | 1018 | 10 | O 13 | |
| Ieri h: 20:53 | Sereno | 19 | -3 | 22 | 1017 | 10 | SO 11.1 | |
| Ieri h: 19:53 | Sereno | 20 | -2 | 22 | 1017 | 10 | O/SO 9.3 | |
| Ieri h: 18:53 | Pioggia | 22 | -4 | 17 | 1017 | 10 | O/SO 13 | |
| Ieri h: 17:53 | Sereno | 23 | -4 | 16 | 1017 | 10 | O 18.5 | |
| Ieri h: 16:53 | Sereno | 23 | -4 | 16 | 1018 | 10 | O 20.3 | |
| Ieri h: 15:53 | Sereno | 22 | -1 | 21 | 1019 | 10 | O/NO 20.3 | |
| Ieri h: 14:53 | Sereno | 21 | 0 | 24 | 1019 | 10 | O 18.5 | |
| Ieri h: 13:53 | Sereno | 19 | 1 | 29 | 1019 | 10 | O/SO 22.2 | |
| Ieri h: 12:53 | Sereno | 18 | 1 | 31 | 1020 | 10 | O 18.5 | |
| Ieri h: 11:53 | Sereno | 17 | 1 | 33 | 1020 | 10 | O 29.6 | |
| Ieri h: 10:53 | Sereno | 16 | 1 | 36 | 1020 | 10 | O 24 | |
| Ieri h: 09:53 | Sereno | 13 | 2 | 47 | 1020 | 10 | O 27.8 | |



